sensor_id;sensor_type;location;lat;lon;timestamp;pressure;altitude;pressure_sealevel;temperature;humidity
38912;BME280;28444;48.056;14.408;2023-05-02T00:02:15;97598.16;;;12.53;79.75
38912;BME280;28444;48.056;14.408;2023-05-02T00:05:02;97597.13;;;12.49;79.79
38912;BME280;28444;48.056;14.408;2023-05-02T00:07:50;97601.75;;;12.56;80.00
38912;BME280;28444;48.056;14.408;2023-05-02T00:10:37;97603.78;;;12.56;80.08
38912;BME280;28444;48.056;14.408;2023-05-02T00:13:24;97602.06;;;12.60;80.13
38912;BME280;28444;48.056;14.408;2023-05-02T00:16:11;97606.25;;;12.61;79.59
38912;BME280;28444;48.056;14.408;2023-05-02T00:18:58;97606.97;;;12.62;79.74
38912;BME280;28444;48.056;14.408;2023-05-02T00:21:48;97607.84;;;12.64;80.00
38912;BME280;28444;48.056;14.408;2023-05-02T00:24:35;97603.81;;;12.65;80.07
38912;BME280;28444;48.056;14.408;2023-05-02T00:27:22;97606.09;;;12.59;80.53
38912;BME280;28444;48.056;14.408;2023-05-02T00:30:09;97598.91;;;12.64;80.46
38912;BME280;28444;48.056;14.408;2023-05-02T00:32:56;97602.19;;;12.62;80.36
38912;BME280;28444;48.056;14.408;2023-05-02T00:35:44;97591.38;;;12.64;80.59
38912;BME280;28444;48.056;14.408;2023-05-02T00:38:30;97600.06;;;12.61;80.35
38912;BME280;28444;48.056;14.408;2023-05-02T00:41:18;97609.00;;;12.61;80.82
38912;BME280;28444;48.056;14.408;2023-05-02T00:44:05;97596.72;;;12.62;80.98
38912;BME280;28444;48.056;14.408;2023-05-02T00:47:00;97598.88;;;12.54;81.52
38912;BME280;28444;48.056;14.408;2023-05-02T00:50:12;97599.88;;;12.59;81.45
38912;BME280;28444;48.056;14.408;2023-05-02T00:53:02;97597.16;;;12.59;81.62
38912;BME280;28444;48.056;14.408;2023-05-02T00:55:50;97594.81;;;12.55;81.61
38912;BME280;28444;48.056;14.408;2023-05-02T00:58:38;97602.50;;;12.57;81.64
38912;BME280;28444;48.056;14.408;2023-05-02T01:01:52;97597.00;;;12.57;81.84
38912;BME280;28444;48.056;14.408;2023-05-02T01:05:16;97598.91;;;12.64;82.12
38912;BME280;28444;48.056;14.408;2023-05-02T01:08:27;97601.91;;;12.58;81.82
38912;BME280;28444;48.056;14.408;2023-05-02T01:11:51;97606.53;;;12.65;82.04
38912;BME280;28444;48.056;14.408;2023-05-02T01:14:44;97611.03;;;12.61;82.94
38912;BME280;28444;48.056;14.408;2023-05-02T01:17:33;97610.72;;;12.57;83.09
38912;BME280;28444;48.056;14.408;2023-05-02T01:20:23;97617.66;;;12.58;83.65
38912;BME280;28444;48.056;14.408;2023-05-02T01:23:18;97612.16;;;12.58;83.40
38912;BME280;28444;48.056;14.408;2023-05-02T01:26:13;97608.84;;;12.59;83.39
38912;BME280;28444;48.056;14.408;2023-05-02T01:29:02;97615.47;;;12.56;84.17
38912;BME280;28444;48.056;14.408;2023-05-02T01:31:50;97617.34;;;12.63;84.10
38912;BME280;28444;48.056;14.408;2023-05-02T01:34:39;97614.91;;;12.58;84.42
38912;BME280;28444;48.056;14.408;2023-05-02T01:37:28;97618.78;;;12.55;84.90
38912;BME280;28444;48.056;14.408;2023-05-02T01:40:18;97628.47;;;12.56;84.89
38912;BME280;28444;48.056;14.408;2023-05-02T01:43:07;97620.69;;;12.62;84.04
38912;BME280;28444;48.056;14.408;2023-05-02T01:45:55;97627.31;;;12.59;84.02
38912;BME280;28444;48.056;14.408;2023-05-02T01:48:45;97623.56;;;12.54;84.30
38912;BME280;28444;48.056;14.408;2023-05-02T01:51:36;97622.81;;;12.44;84.38
38912;BME280;28444;48.056;14.408;2023-05-02T01:54:26;97621.78;;;12.39;85.07
38912;BME280;28444;48.056;14.408;2023-05-02T01:57:14;97630.75;;;12.40;84.61
38912;BME280;28444;48.056;14.408;2023-05-02T02:00:03;97625.97;;;12.40;84.98
38912;BME280;28444;48.056;14.408;2023-05-02T02:02:52;97624.78;;;12.34;85.38
38912;BME280;28444;48.056;14.408;2023-05-02T02:05:41;97620.78;;;12.35;85.44
38912;BME280;28444;48.056;14.408;2023-05-02T02:08:28;97620.19;;;12.36;85.51
38912;BME280;28444;48.056;14.408;2023-05-02T02:11:24;97628.41;;;12.36;85.55
38912;BME280;28444;48.056;14.408;2023-05-02T02:14:20;97625.41;;;12.42;84.91
38912;BME280;28444;48.056;14.408;2023-05-02T02:17:21;97631.75;;;12.35;85.23
38912;BME280;28444;48.056;14.408;2023-05-02T02:20:11;97633.16;;;12.26;85.22
38912;BME280;28444;48.056;14.408;2023-05-02T02:23:02;97628.25;;;12.24;84.75
38912;BME280;28444;48.056;14.408;2023-05-02T02:25:51;97631.97;;;12.19;84.94
38912;BME280;28444;48.056;14.408;2023-05-02T02:28:39;97632.06;;;12.12;85.80
38912;BME280;28444;48.056;14.408;2023-05-02T02:31:33;97636.59;;;12.17;85.52
38912;BME280;28444;48.056;14.408;2023-05-02T02:34:21;97645.66;;;12.19;85.22
38912;BME280;28444;48.056;14.408;2023-05-02T02:37:14;97638.50;;;12.24;85.10
38912;BME280;28444;48.056;14.408;2023-05-02T02:40:32;97639.50;;;12.28;84.95
38912;BME280;28444;48.056;14.408;2023-05-02T02:46:47;97642.38;;;12.31;84.46
38912;BME280;28444;48.056;14.408;2023-05-02T02:52:36;97640.59;;;12.16;86.35
38912;BME280;28444;48.056;14.408;2023-05-02T02:58:30;97649.81;;;12.11;86.82
38912;BME280;28444;48.056;14.408;2023-05-02T03:01:26;97656.59;;;12.10;85.81
38912;BME280;28444;48.056;14.408;2023-05-02T03:04:17;97660.94;;;12.13;86.53
38912;BME280;28444;48.056;14.408;2023-05-02T03:07:06;97649.09;;;12.10;85.62
38912;BME280;28444;48.056;14.408;2023-05-02T03:09:53;97654.84;;;12.04;85.58
38912;BME280;28444;48.056;14.408;2023-05-02T03:12:40;97658.22;;;12.22;84.42
38912;BME280;28444;48.056;14.408;2023-05-02T03:18:40;97660.38;;;12.14;84.38
38912;BME280;28444;48.056;14.408;2023-05-02T03:21:27;97666.84;;;12.09;83.92
38912;BME280;28444;48.056;14.408;2023-05-02T03:24:14;97663.22;;;12.07;83.83
38912;BME280;28444;48.056;14.408;2023-05-02T03:27:05;97662.66;;;12.08;83.86
38912;BME280;28444;48.056;14.408;2023-05-02T03:29:52;97670.00;;;12.06;83.97
38912;BME280;28444;48.056;14.408;2023-05-02T03:32:38;97675.31;;;12.03;83.99
38912;BME280;28444;48.056;14.408;2023-05-02T03:35:25;97671.56;;;11.99;84.40
38912;BME280;28444;48.056;14.408;2023-05-02T03:38:12;97681.38;;;12.02;84.52
38912;BME280;28444;48.056;14.408;2023-05-02T03:40:59;97679.06;;;11.98;83.87
38912;BME280;28444;48.056;14.408;2023-05-02T03:43:46;97679.47;;;11.95;84.85
38912;BME280;28444;48.056;14.408;2023-05-02T03:46:33;97678.31;;;11.98;84.69
38912;BME280;28444;48.056;14.408;2023-05-02T03:49:20;97682.56;;;12.09;83.85
38912;BME280;28444;48.056;14.408;2023-05-02T03:52:07;97686.91;;;12.12;84.02
38912;BME280;28444;48.056;14.408;2023-05-02T03:54:54;97685.75;;;12.15;83.90
38912;BME280;28444;48.056;14.408;2023-05-02T03:57:41;97691.97;;;12.15;83.90
38912;BME280;28444;48.056;14.408;2023-05-02T04:00:28;97698.75;;;12.14;84.27
38912;BME280;28444;48.056;14.408;2023-05-02T04:03:15;97699.63;;;12.17;83.92
38912;BME280;28444;48.056;14.408;2023-05-02T04:06:02;97699.63;;;12.17;83.89
38912;BME280;28444;48.056;14.408;2023-05-02T04:08:49;97700.06;;;12.13;83.93
38912;BME280;28444;48.056;14.408;2023-05-02T04:11:36;97699.88;;;12.11;83.42
38912;BME280;28444;48.056;14.408;2023-05-02T04:14:23;97700.88;;;12.06;84.03
38912;BME280;28444;48.056;14.408;2023-05-02T04:17:09;97697.75;;;12.19;83.30
38912;BME280;28444;48.056;14.408;2023-05-02T04:19:56;97702.38;;;12.17;83.35
38912;BME280;28444;48.056;14.408;2023-05-02T04:22:44;97707.28;;;12.18;83.87
38912;BME280;28444;48.056;14.408;2023-05-02T04:25:33;97711.16;;;12.15;83.46
38912;BME280;28444;48.056;14.408;2023-05-02T04:28:21;97714.19;;;12.19;83.92
38912;BME280;28444;48.056;14.408;2023-05-02T04:31:08;97715.09;;;12.22;84.40
38912;BME280;28444;48.056;14.408;2023-05-02T04:33:55;97723.47;;;12.24;83.73
38912;BME280;28444;48.056;14.408;2023-05-02T04:36:44;97723.19;;;12.29;83.06
38912;BME280;28444;48.056;14.408;2023-05-02T04:39:31;97726.41;;;12.36;83.13
38912;BME280;28444;48.056;14.408;2023-05-02T04:42:18;97724.63;;;12.31;83.76
38912;BME280;28444;48.056;14.408;2023-05-02T04:45:06;97730.72;;;12.29;83.04
38912;BME280;28444;48.056;14.408;2023-05-02T04:47:53;97725.06;;;12.27;83.68
38912;BME280;28444;48.056;14.408;2023-05-02T04:50:40;97721.03;;;12.28;83.12
38912;BME280;28444;48.056;14.408;2023-05-02T04:53:27;97723.19;;;12.29;82.89
38912;BME280;28444;48.056;14.408;2023-05-02T04:56:14;97727.25;;;12.28;83.66
38912;BME280;28444;48.056;14.408;2023-05-02T04:59:01;97724.69;;;12.40;82.98
38912;BME280;28444;48.056;14.408;2023-05-02T05:01:48;97724.81;;;12.33;83.41
38912;BME280;28444;48.056;14.408;2023-05-02T05:04:35;97732.63;;;12.36;82.66
38912;BME280;28444;48.056;14.408;2023-05-02T05:07:22;97731.59;;;12.32;83.33
38912;BME280;28444;48.056;14.408;2023-05-02T05:10:09;97740.38;;;12.30;83.30
38912;BME280;28444;48.056;14.408;2023-05-02T05:12:57;97746.03;;;12.32;83.37
38912;BME280;28444;48.056;14.408;2023-05-02T05:15:44;97751.03;;;12.26;83.15
38912;BME280;28444;48.056;14.408;2023-05-02T05:18:31;97744.00;;;12.33;83.51
38912;BME280;28444;48.056;14.408;2023-05-02T05:21:19;97750.38;;;12.35;83.36
38912;BME280;28444;48.056;14.408;2023-05-02T05:24:06;97763.66;;;12.39;83.29
38912;BME280;28444;48.056;14.408;2023-05-02T05:26:53;97767.66;;;12.28;83.91
38912;BME280;28444;48.056;14.408;2023-05-02T05:29:40;97778.13;;;12.22;83.92
38912;BME280;28444;48.056;14.408;2023-05-02T05:32:27;97768.97;;;12.37;83.49
38912;BME280;28444;48.056;14.408;2023-05-02T05:35:15;97777.38;;;12.39;83.51
38912;BME280;28444;48.056;14.408;2023-05-02T05:38:02;97778.13;;;12.22;83.76
38912;BME280;28444;48.056;14.408;2023-05-02T05:40:49;97772.72;;;12.32;83.49
38912;BME280;28444;48.056;14.408;2023-05-02T05:43:36;97786.97;;;12.30;83.89
38912;BME280;28444;48.056;14.408;2023-05-02T05:46:24;97778.66;;;12.38;83.26
38912;BME280;28444;48.056;14.408;2023-05-02T05:49:11;97783.94;;;12.26;84.36
38912;BME280;28444;48.056;14.408;2023-05-02T05:51:58;97786.13;;;12.27;84.56
38912;BME280;28444;48.056;14.408;2023-05-02T05:54:46;97786.84;;;12.28;84.06
38912;BME280;28444;48.056;14.408;2023-05-02T05:57:33;97790.31;;;12.28;84.31
38912;BME280;28444;48.056;14.408;2023-05-02T06:00:20;97785.72;;;12.31;84.26
38912;BME280;28444;48.056;14.408;2023-05-02T06:03:07;97800.69;;;12.30;84.07
38912;BME280;28444;48.056;14.408;2023-05-02T06:05:55;97802.56;;;12.27;84.77
38912;BME280;28444;48.056;14.408;2023-05-02T06:08:42;97800.69;;;12.30;84.30
38912;BME280;28444;48.056;14.408;2023-05-02T06:11:29;97805.16;;;12.25;84.54
38912;BME280;28444;48.056;14.408;2023-05-02T06:14:16;97806.13;;;12.20;85.06
38912;BME280;28444;48.056;14.408;2023-05-02T06:17:03;97808.78;;;12.28;84.97
38912;BME280;28444;48.056;14.408;2023-05-02T06:19:50;97814.34;;;12.20;85.57
38912;BME280;28444;48.056;14.408;2023-05-02T06:22:36;97813.19;;;12.23;85.94
38912;BME280;28444;48.056;14.408;2023-05-02T06:25:25;97812.72;;;12.35;86.51
38912;BME280;28444;48.056;14.408;2023-05-02T06:28:12;97817.09;;;12.47;85.94
38912;BME280;28444;48.056;14.408;2023-05-02T06:31:00;97817.41;;;12.24;87.53
38912;BME280;28444;48.056;14.408;2023-05-02T06:33:48;97824.09;;;12.31;87.82
38912;BME280;28444;48.056;14.408;2023-05-02T06:36:34;97824.66;;;12.29;88.22
38912;BME280;28444;48.056;14.408;2023-05-02T06:39:21;97820.06;;;12.32;88.61
38912;BME280;28444;48.056;14.408;2023-05-02T06:42:08;97829.47;;;12.39;88.71
38912;BME280;28444;48.056;14.408;2023-05-02T06:44:55;97832.44;;;12.50;88.22
38912;BME280;28444;48.056;14.408;2023-05-02T06:47:42;97840.84;;;12.62;87.21
38912;BME280;28444;48.056;14.408;2023-05-02T06:50:29;97846.53;;;12.74;86.13
38912;BME280;28444;48.056;14.408;2023-05-02T06:53:16;97838.84;;;12.90;85.64
38912;BME280;28444;48.056;14.408;2023-05-02T06:56:03;97849.94;;;12.92;85.80
38912;BME280;28444;48.056;14.408;2023-05-02T06:58:51;97846.75;;;12.86;85.50
38912;BME280;28444;48.056;14.408;2023-05-02T07:01:38;97852.69;;;12.92;85.43
38912;BME280;28444;48.056;14.408;2023-05-02T07:04:25;97841.31;;;12.95;84.81
38912;BME280;28444;48.056;14.408;2023-05-02T07:07:15;97846.00;;;13.12;85.51
38912;BME280;28444;48.056;14.408;2023-05-02T07:10:04;97839.06;;;13.11;85.02
38912;BME280;28444;48.056;14.408;2023-05-02T07:12:52;97851.78;;;13.16;84.75
38912;BME280;28444;48.056;14.408;2023-05-02T07:15:38;97853.88;;;13.26;84.67
38912;BME280;28444;48.056;14.408;2023-05-02T07:18:25;97856.94;;;13.39;83.55
38912;BME280;28444;48.056;14.408;2023-05-02T07:21:12;97856.50;;;13.43;84.37
38912;BME280;28444;48.056;14.408;2023-05-02T07:23:59;97851.91;;;13.45;83.52
38912;BME280;28444;48.056;14.408;2023-05-02T07:26:47;97856.38;;;13.41;84.25
38912;BME280;28444;48.056;14.408;2023-05-02T07:29:33;97862.63;;;13.51;83.04
38912;BME280;28444;48.056;14.408;2023-05-02T07:32:20;97866.22;;;13.54;82.14
38912;BME280;28444;48.056;14.408;2023-05-02T07:35:08;97870.66;;;13.39;83.99
38912;BME280;28444;48.056;14.408;2023-05-02T07:37:55;97867.97;;;13.59;82.80
38912;BME280;28444;48.056;14.408;2023-05-02T07:40:42;97872.34;;;13.81;82.68
38912;BME280;28444;48.056;14.408;2023-05-02T07:43:29;97871.19;;;13.94;81.19
38912;BME280;28444;48.056;14.408;2023-05-02T07:46:16;97867.28;;;13.97;80.35
38912;BME280;28444;48.056;14.408;2023-05-02T07:49:03;97875.84;;;14.11;79.79
38912;BME280;28444;48.056;14.408;2023-05-02T07:51:50;97881.03;;;13.87;78.18
38912;BME280;28444;48.056;14.408;2023-05-02T07:54:37;97879.88;;;13.81;80.02
38912;BME280;28444;48.056;14.408;2023-05-02T07:57:25;97886.53;;;13.87;80.20
38912;BME280;28444;48.056;14.408;2023-05-02T08:00:12;97879.94;;;13.44;80.96
38912;BME280;28444;48.056;14.408;2023-05-02T08:03:00;97882.13;;;13.55;80.40
38912;BME280;28444;48.056;14.408;2023-05-02T08:05:47;97888.47;;;13.48;80.52
38912;BME280;28444;48.056;14.408;2023-05-02T08:08:34;97891.94;;;13.48;81.62
38912;BME280;28444;48.056;14.408;2023-05-02T08:11:21;97886.03;;;13.52;82.00
38912;BME280;28444;48.056;14.408;2023-05-02T08:14:11;97896.19;;;13.59;82.47
38912;BME280;28444;48.056;14.408;2023-05-02T08:16:58;97899.66;;;13.69;81.79
38912;BME280;28444;48.056;14.408;2023-05-02T08:19:45;97886.97;;;13.84;81.61
38912;BME280;28444;48.056;14.408;2023-05-02T08:22:32;97891.91;;;13.95;79.85
38912;BME280;28444;48.056;14.408;2023-05-02T08:25:19;97900.28;;;14.07;80.75
38912;BME280;28444;48.056;14.408;2023-05-02T08:28:06;97895.94;;;13.94;79.54
38912;BME280;28444;48.056;14.408;2023-05-02T08:30:53;97896.53;;;14.02;80.46
38912;BME280;28444;48.056;14.408;2023-05-02T08:33:40;97896.25;;;13.98;81.05
38912;BME280;28444;48.056;14.408;2023-05-02T08:36:27;97903.19;;;13.99;79.54
38912;BME280;28444;48.056;14.408;2023-05-02T08:39:14;97906.78;;;13.92;79.86
38912;BME280;28444;48.056;14.408;2023-05-02T08:42:06;97906.31;;;13.76;79.30
38912;BME280;28444;48.056;14.408;2023-05-02T08:44:53;97906.47;;;13.78;80.08
38912;BME280;28444;48.056;14.408;2023-05-02T08:47:41;97910.84;;;14.01;79.73
38912;BME280;28444;48.056;14.408;2023-05-02T08:50:29;97910.09;;;13.81;79.60
38912;BME280;28444;48.056;14.408;2023-05-02T08:53:16;97906.50;;;13.97;79.59
38912;BME280;28444;48.056;14.408;2023-05-02T08:56:06;97900.28;;;14.07;78.64
38912;BME280;28444;48.056;14.408;2023-05-02T08:58:53;97908.81;;;14.30;78.02
38912;BME280;28444;48.056;14.408;2023-05-02T09:01:41;97908.38;;;14.34;78.27
38912;BME280;28444;48.056;14.408;2023-05-02T09:04:31;97915.50;;;14.17;78.55
38912;BME280;28444;48.056;14.408;2023-05-02T09:07:21;97918.09;;;14.35;79.24
38912;BME280;28444;48.056;14.408;2023-05-02T09:10:08;97915.50;;;14.56;78.78
38912;BME280;28444;48.056;14.408;2023-05-02T09:12:55;97917.78;;;14.69;76.22
38912;BME280;28444;48.056;14.408;2023-05-02T09:15:55;97925.31;;;14.30;77.72
38912;BME280;28444;48.056;14.408;2023-05-02T09:21:38;97925.19;;;14.38;79.26
38912;BME280;28444;48.056;14.408;2023-05-02T09:24:28;97924.75;;;14.32;78.26
38912;BME280;28444;48.056;14.408;2023-05-02T09:27:15;97929.09;;;14.25;77.37
38912;BME280;28444;48.056;14.408;2023-05-02T09:30:24;97928.66;;;14.48;79.60
38912;BME280;28444;48.056;14.408;2023-05-02T09:33:25;97928.78;;;14.79;78.78
38912;BME280;28444;48.056;14.408;2023-05-02T09:36:15;97929.69;;;15.23;77.43
38912;BME280;28444;48.056;14.408;2023-05-02T09:39:14;97937.97;;;15.13;75.71
38912;BME280;28444;48.056;14.408;2023-05-02T09:42:01;97939.03;;;14.98;78.73
38912;BME280;28444;48.056;14.408;2023-05-02T09:44:49;97938.09;;;14.64;78.93
38912;BME280;28444;48.056;14.408;2023-05-02T09:47:36;97936.19;;;14.77;79.85
38912;BME280;28444;48.056;14.408;2023-05-02T09:50:35;97935.06;;;14.51;77.77
38912;BME280;28444;48.056;14.408;2023-05-02T09:53:24;97942.41;;;14.77;77.24
38912;BME280;28444;48.056;14.408;2023-05-02T09:56:12;97938.81;;;14.75;76.51
38912;BME280;28444;48.056;14.408;2023-05-02T09:59:15;97944.56;;;14.88;74.40
38912;BME280;28444;48.056;14.408;2023-05-02T10:02:03;97940.69;;;14.72;75.71
38912;BME280;28444;48.056;14.408;2023-05-02T10:04:52;97941.84;;;14.59;73.47
38912;BME280;28444;48.056;14.408;2023-05-02T10:07:39;97947.31;;;14.88;73.29
38912;BME280;28444;48.056;14.408;2023-05-02T10:10:27;97950.47;;;15.04;73.84
38912;BME280;28444;48.056;14.408;2023-05-02T10:13:15;97941.00;;;15.17;73.23
38912;BME280;28444;48.056;14.408;2023-05-02T10:16:06;97953.34;;;15.16;73.74
38912;BME280;28444;48.056;14.408;2023-05-02T10:21:42;97948.53;;;15.16;72.97
38912;BME280;28444;48.056;14.408;2023-05-02T10:24:33;97952.34;;;15.02;73.39
38912;BME280;28444;48.056;14.408;2023-05-02T10:27:20;97962.09;;;14.93;74.15
38912;BME280;28444;48.056;14.408;2023-05-02T10:30:08;97956.00;;;14.85;76.33
38912;BME280;28444;48.056;14.408;2023-05-02T10:32:58;97954.88;;;14.68;75.25
38912;BME280;28444;48.056;14.408;2023-05-02T10:35:45;97961.81;;;14.69;78.34
38912;BME280;28444;48.056;14.408;2023-05-02T10:38:33;97957.91;;;14.73;76.07
38912;BME280;28444;48.056;14.408;2023-05-02T10:41:24;97953.72;;;14.72;77.81
38912;BME280;28444;48.056;14.408;2023-05-02T10:44:12;97964.13;;;14.92;75.58
38912;BME280;28444;48.056;14.408;2023-05-02T10:46:59;97965.97;;;15.09;76.56
38912;BME280;28444;48.056;14.408;2023-05-02T10:52:38;97962.94;;;14.96;74.59
38912;BME280;28444;48.056;14.408;2023-05-02T10:55:26;97965.56;;;14.84;74.54
38912;BME280;28444;48.056;14.408;2023-05-02T10:58:20;97964.13;;;14.73;76.13
38912;BME280;28444;48.056;14.408;2023-05-02T11:04:14;97965.13;;;14.97;75.26
38912;BME280;28444;48.056;14.408;2023-05-02T11:07:16;97966.28;;;15.04;76.99
38912;BME280;28444;48.056;14.408;2023-05-02T11:13:02;97959.88;;;15.11;77.00
38912;BME280;28444;48.056;14.408;2023-05-02T11:18:59;97962.16;;;15.24;76.57
38912;BME280;28444;48.056;14.408;2023-05-02T11:21:46;97953.88;;;15.24;76.06
38912;BME280;28444;48.056;14.408;2023-05-02T11:24:41;97958.69;;;15.24;76.58
38912;BME280;28444;48.056;14.408;2023-05-02T11:30:35;97961.75;;;15.18;79.45
38912;BME280;28444;48.056;14.408;2023-05-02T11:33:23;97958.63;;;14.92;78.69
38912;BME280;28444;48.056;14.408;2023-05-02T11:36:09;97961.50;;;14.85;79.54
38912;BME280;28444;48.056;14.408;2023-05-02T11:38:57;97971.53;;;14.90;81.13
38912;BME280;28444;48.056;14.408;2023-05-02T11:41:43;97963.69;;;14.96;80.74
38912;BME280;28444;48.056;14.408;2023-05-02T11:44:33;97961.78;;;14.99;80.47
38912;BME280;28444;48.056;14.408;2023-05-02T11:47:21;97972.56;;;14.75;81.41
38912;BME280;28444;48.056;14.408;2023-05-02T11:50:08;97972.41;;;14.83;82.16
38912;BME280;28444;48.056;14.408;2023-05-02T11:52:55;97973.13;;;14.83;82.28
38912;BME280;28444;48.056;14.408;2023-05-02T11:55:53;97971.09;;;14.84;82.77
38912;BME280;28444;48.056;14.408;2023-05-02T11:58:40;97969.19;;;14.96;82.88
38912;BME280;28444;48.056;14.408;2023-05-02T12:01:27;97970.63;;;14.97;82.46
38912;BME280;28444;48.056;14.408;2023-05-02T12:04:14;97973.38;;;14.97;81.67
38912;BME280;28444;48.056;14.408;2023-05-02T12:07:01;97972.09;;;14.88;79.66
38912;BME280;28444;48.056;14.408;2023-05-02T12:09:52;97981.81;;;14.80;79.44
38912;BME280;28444;48.056;14.408;2023-05-02T12:12:42;97977.06;;;14.61;82.00
38912;BME280;28444;48.056;14.408;2023-05-02T12:15:29;97980.69;;;14.54;82.38
38912;BME280;28444;48.056;14.408;2023-05-02T12:18:17;97976.19;;;14.58;82.29
38912;BME280;28444;48.056;14.408;2023-05-02T12:21:07;97967.78;;;14.56;82.13
38912;BME280;28444;48.056;14.408;2023-05-02T12:23:55;97974.88;;;14.59;80.58
38912;BME280;28444;48.056;14.408;2023-05-02T12:26:43;97976.03;;;14.66;80.40
38912;BME280;28444;48.056;14.408;2023-05-02T12:29:37;97980.53;;;14.52;79.80
38912;BME280;28444;48.056;14.408;2023-05-02T12:32:28;97984.81;;;14.45;81.34
38912;BME280;28444;48.056;14.408;2023-05-02T12:35:22;97992.13;;;14.50;82.18
38912;BME280;28444;48.056;14.408;2023-05-02T12:38:09;97985.69;;;14.28;81.80
38912;BME280;28444;48.056;14.408;2023-05-02T12:40:57;97986.25;;;14.27;80.74
38912;BME280;28444;48.056;14.408;2023-05-02T12:43:46;97984.25;;;14.27;82.66
38912;BME280;28444;48.056;14.408;2023-05-02T12:46:33;97984.25;;;14.37;82.66
38912;BME280;28444;48.056;14.408;2023-05-02T12:49:20;97978.34;;;14.50;82.62
38912;BME280;28444;48.056;14.408;2023-05-02T12:52:07;97990.81;;;14.51;83.31
38912;BME280;28444;48.056;14.408;2023-05-02T12:55:17;97990.81;;;14.71;82.63
38912;BME280;28444;48.056;14.408;2023-05-02T12:58:09;97996.44;;;14.82;83.13
38912;BME280;28444;48.056;14.408;2023-05-02T13:00:56;97997.13;;;15.02;81.25
38912;BME280;28444;48.056;14.408;2023-05-02T13:03:43;97996.53;;;15.13;80.32
38912;BME280;28444;48.056;14.408;2023-05-02T13:06:30;97997.25;;;15.14;81.29
38912;BME280;28444;48.056;14.408;2023-05-02T13:09:17;97995.69;;;15.11;81.48
38912;BME280;28444;48.056;14.408;2023-05-02T13:12:04;98002.31;;;15.27;79.61
38912;BME280;28444;48.056;14.408;2023-05-02T13:14:51;97994.06;;;15.17;80.84
38912;BME280;28444;48.056;14.408;2023-05-02T13:17:38;97998.13;;;15.16;81.11
38912;BME280;28444;48.056;14.408;2023-05-02T13:20:26;97990.72;;;15.19;80.62
38912;BME280;28444;48.056;14.408;2023-05-02T13:23:13;97987.06;;;15.36;81.75
38912;BME280;28444;48.056;14.408;2023-05-02T13:26:02;97994.56;;;15.45;78.85
38912;BME280;28444;48.056;14.408;2023-05-02T13:28:49;97996.28;;;15.50;79.16
38912;BME280;28444;48.056;14.408;2023-05-02T13:31:37;97981.31;;;15.53;78.02
38912;BME280;28444;48.056;14.408;2023-05-02T13:34:24;97983.69;;;15.47;77.94
38912;BME280;28444;48.056;14.408;2023-05-02T13:37:11;97989.94;;;15.38;79.12
38912;BME280;28444;48.056;14.408;2023-05-02T13:39:58;97992.41;;;15.44;79.44
38912;BME280;28444;48.056;14.408;2023-05-02T13:42:45;97986.91;;;15.34;80.03
38912;BME280;28444;48.056;14.408;2023-05-02T13:45:32;97981.94;;;15.42;79.92
38912;BME280;28444;48.056;14.408;2023-05-02T13:48:19;97984.25;;;15.46;79.95
38912;BME280;28444;48.056;14.408;2023-05-02T13:51:06;97979.81;;;15.31;81.81
38912;BME280;28444;48.056;14.408;2023-05-02T13:53:53;97982.91;;;15.25;80.68
38912;BME280;28444;48.056;14.408;2023-05-02T13:56:41;97983.28;;;15.31;80.79
38912;BME280;28444;48.056;14.408;2023-05-02T13:59:28;97986.06;;;15.31;80.40
38912;BME280;28444;48.056;14.408;2023-05-02T14:02:16;97991.88;;;15.26;79.72
38912;BME280;28444;48.056;14.408;2023-05-02T14:05:03;97995.34;;;15.36;79.65
38912;BME280;28444;48.056;14.408;2023-05-02T14:07:50;97993.75;;;15.23;81.36
38912;BME280;28444;48.056;14.408;2023-05-02T14:10:37;98000.44;;;15.20;81.28
38912;BME280;28444;48.056;14.408;2023-05-02T14:13:24;97993.06;;;15.13;81.30
38912;BME280;28444;48.056;14.408;2023-05-02T14:16:11;98000.44;;;15.10;81.91
38912;BME280;28444;48.056;14.408;2023-05-02T14:18:58;97998.88;;;14.98;82.38
38912;BME280;28444;48.056;14.408;2023-05-02T14:21:45;98000.31;;;14.99;82.59
38912;BME280;28444;48.056;14.408;2023-05-02T14:24:32;98000.50;;;14.81;81.68
38912;BME280;28444;48.056;14.408;2023-05-02T14:27:19;98001.38;;;14.74;83.25
38912;BME280;28444;48.056;14.408;2023-05-02T14:30:07;98003.84;;;14.70;83.56
38912;BME280;28444;48.056;14.408;2023-05-02T14:32:54;98005.44;;;14.54;84.31
38912;BME280;28444;48.056;14.408;2023-05-02T14:35:41;98003.56;;;14.56;85.84
38912;BME280;28444;48.056;14.408;2023-05-02T14:38:28;98000.19;;;14.48;85.68
38912;BME280;28444;48.056;14.408;2023-05-02T14:41:15;97996.41;;;14.34;83.78
38912;BME280;28444;48.056;14.408;2023-05-02T14:44:02;98002.34;;;14.20;83.77
38912;BME280;28444;48.056;14.408;2023-05-02T14:46:53;97995.69;;;14.24;83.59
38912;BME280;28444;48.056;14.408;2023-05-02T14:49:40;98000.75;;;14.17;83.94
38912;BME280;28444;48.056;14.408;2023-05-02T14:52:27;98006.94;;;14.08;83.38
38912;BME280;28444;48.056;14.408;2023-05-02T14:55:14;98009.38;;;13.94;82.63
38912;BME280;28444;48.056;14.408;2023-05-02T14:58:01;98008.94;;;13.88;83.52
38912;BME280;28444;48.056;14.408;2023-05-02T15:00:48;98015.56;;;13.85;83.62
38912;BME280;28444;48.056;14.408;2023-05-02T15:03:36;98016.75;;;13.92;83.76
38912;BME280;28444;48.056;14.408;2023-05-02T15:06:42;98024.53;;;13.86;84.70
38912;BME280;28444;48.056;14.408;2023-05-02T15:09:29;98026.09;;;13.79;85.11
38912;BME280;28444;48.056;14.408;2023-05-02T15:12:16;98024.19;;;13.72;85.40
38912;BME280;28444;48.056;14.408;2023-05-02T15:15:03;98029.25;;;13.66;86.63
38912;BME280;28444;48.056;14.408;2023-05-02T15:17:50;98033.13;;;13.63;87.07